Aérodrome :
LOGIN :

S'inscrire | Disclaimer

   EN    FR    IT 

 










Légende :    VFR   VFR Marginal   IFR   IFR Intensif   IFR Très Intensif
Visi : 
Plafond : 
>= 8 km
>= 3000ft
5 à 8 km
1000 à 3000 ft
1500m à 5 km
500 à 1000 ft
800 à 1500m
200 à 500 ft
< 800m
< 200 ft
Symboles :   Orages  Brouillard  Fortes neiges  Fortes précipitations  Vent > 20 kt
SIGMETs :   Divers  Orages  Givrage  Turbulence  Onde Orograph.  Cendres Volcan.






- Altitude de l'aérodrome : 7 ft
- Code IATA : XHE


LFTH - Hyeres

DERNIER METAR :
  • 050000Z AUTO 28011KT CAVOK 21/16 Q1012 NOSIG

METARs EXPIRÉS :
  • 042330Z AUTO 27012KT CAVOK 21/16 Q1012 NOSIG
  • 042300Z AUTO 26010KT CAVOK 21/17 Q1012 NOSIG
  • 042230Z AUTO 26007KT CAVOK 21/17 Q1012 NOSIG
  • 042200Z AUTO 24009KT CAVOK 21/17 Q1012 NOSIG
  • 042130Z AUTO 23006KT 190V260 CAVOK 21/17 Q1013 NOSIG

TAF TAF LFTH
Valide du 04 à 21h jusqu'au 05 à 21h UTC


042000Z 0421/0521 27012KT CAVOK
TEMPO 0510/0518 27022KT



MET'MAP, la Météo Aéronautique d'un coup d'oeil ! - Copyright ORBIFLY Décembre 2007 - Disclaimer

ORBIFLY MET'MAP TEAM :

Programmation & Développement : Alexandra Zaïnal
Sur une idée originale de : Baudouin d'Aumeries
Assistance à la programmation : Marc-Olivier Méhu
Soutien technique & logistique : Manuel Goepfert

Contact : metmap@orbifly.com




SOURCES & CREDITS :

   NOAA